sensor_id;sensor_type;location;lat;lon;timestamp;temperature;humidity
20712;DHT22;10517;50.742;4.224;2023-02-01T00:00:24;7.40;99.90
20712;DHT22;10517;50.742;4.224;2023-02-01T00:02:50;7.60;99.90
20712;DHT22;10517;50.742;4.224;2023-02-01T00:05:15;7.60;99.90
20712;DHT22;10517;50.742;4.224;2023-02-01T00:07:41;7.50;99.90
20712;DHT22;10517;50.742;4.224;2023-02-01T00:10:07;7.50;99.90
20712;DHT22;10517;50.742;4.224;2023-02-01T00:12:33;7.60;99.90
20712;DHT22;10517;50.742;4.224;2023-02-01T00:14:59;7.70;99.90
20712;DHT22;10517;50.742;4.224;2023-02-01T00:17:24;7.60;99.90
20712;DHT22;10517;50.742;4.224;2023-02-01T00:19:50;7.60;99.90
20712;DHT22;10517;50.742;4.224;2023-02-01T00:22:15;7.60;99.90
20712;DHT22;10517;50.742;4.224;2023-02-01T00:24:41;7.50;99.90
20712;DHT22;10517;50.742;4.224;2023-02-01T00:27:07;7.50;99.90
20712;DHT22;10517;50.742;4.224;2023-02-01T00:29:32;7.50;99.90
20712;DHT22;10517;50.742;4.224;2023-02-01T00:31:58;7.60;99.90
20712;DHT22;10517;50.742;4.224;2023-02-01T00:34:23;7.50;99.90
20712;DHT22;10517;50.742;4.224;2023-02-01T00:36:49;7.50;99.90
20712;DHT22;10517;50.742;4.224;2023-02-01T00:39:16;7.30;99.90
20712;DHT22;10517;50.742;4.224;2023-02-01T00:41:42;7.30;99.90
20712;DHT22;10517;50.742;4.224;2023-02-01T00:44:08;7.20;99.90
20712;DHT22;10517;50.742;4.224;2023-02-01T00:46:33;7.20;99.90
20712;DHT22;10517;50.742;4.224;2023-02-01T00:48:59;7.10;99.90
20712;DHT22;10517;50.742;4.224;2023-02-01T00:51:27;7.20;99.90
20712;DHT22;10517;50.742;4.224;2023-02-01T00:53:53;7.30;99.90
20712;DHT22;10517;50.742;4.224;2023-02-01T00:56:18;7.20;99.90
20712;DHT22;10517;50.742;4.224;2023-02-01T00:58:44;7.20;99.90
20712;DHT22;10517;50.742;4.224;2023-02-01T01:01:22;7.30;99.90
20712;DHT22;10517;50.742;4.224;2023-02-01T01:03:50;7.20;99.90
20712;DHT22;10517;50.742;4.224;2023-02-01T01:06:19;7.30;99.90
20712;DHT22;10517;50.742;4.224;2023-02-01T01:08:45;7.30;99.90
20712;DHT22;10517;50.742;4.224;2023-02-01T01:11:12;7.30;99.90
20712;DHT22;10517;50.742;4.224;2023-02-01T01:13:41;7.30;99.90
20712;DHT22;10517;50.742;4.224;2023-02-01T01:16:08;7.30;99.90
20712;DHT22;10517;50.742;4.224;2023-02-01T01:18:34;7.20;99.90
20712;DHT22;10517;50.742;4.224;2023-02-01T01:21:01;7.10;99.90
20712;DHT22;10517;50.742;4.224;2023-02-01T01:23:27;7.00;99.90
20712;DHT22;10517;50.742;4.224;2023-02-01T01:25:53;6.80;99.90
20712;DHT22;10517;50.742;4.224;2023-02-01T01:28:19;6.80;99.90
20712;DHT22;10517;50.742;4.224;2023-02-01T01:30:44;6.90;99.90
20712;DHT22;10517;50.742;4.224;2023-02-01T01:33:10;6.90;99.90
20712;DHT22;10517;50.742;4.224;2023-02-01T01:35:36;6.80;99.90
20712;DHT22;10517;50.742;4.224;2023-02-01T01:38:02;6.80;99.90
20712;DHT22;10517;50.742;4.224;2023-02-01T01:40:29;6.80;99.90
20712;DHT22;10517;50.742;4.224;2023-02-01T01:42:55;6.90;99.90
20712;DHT22;10517;50.742;4.224;2023-02-01T01:45:31;6.90;99.90
20712;DHT22;10517;50.742;4.224;2023-02-01T01:47:59;6.90;99.90
20712;DHT22;10517;50.742;4.224;2023-02-01T01:50:30;7.00;99.90
20712;DHT22;10517;50.742;4.224;2023-02-01T01:52:58;7.00;99.90
20712;DHT22;10517;50.742;4.224;2023-02-01T01:55:27;7.00;99.90
20712;DHT22;10517;50.742;4.224;2023-02-01T01:58:00;7.10;99.90
20712;DHT22;10517;50.742;4.224;2023-02-01T02:00:26;7.10;99.90
20712;DHT22;10517;50.742;4.224;2023-02-01T02:03:07;7.00;99.90
20712;DHT22;10517;50.742;4.224;2023-02-01T02:05:37;7.20;99.90
20712;DHT22;10517;50.742;4.224;2023-02-01T02:08:02;7.10;99.90
20712;DHT22;10517;50.742;4.224;2023-02-01T02:10:28;7.00;99.90
20712;DHT22;10517;50.742;4.224;2023-02-01T02:13:14;7.00;99.90
20712;DHT22;10517;50.742;4.224;2023-02-01T02:15:45;7.00;99.90
20712;DHT22;10517;50.742;4.224;2023-02-01T02:18:21;7.00;99.90
20712;DHT22;10517;50.742;4.224;2023-02-01T02:29:24;7.20;99.90
20712;DHT22;10517;50.742;4.224;2023-02-01T02:32:23;7.20;99.90
20712;DHT22;10517;50.742;4.224;2023-02-01T02:34:55;7.00;99.90
20712;DHT22;10517;50.742;4.224;2023-02-01T02:38:02;7.10;99.90
20712;DHT22;10517;50.742;4.224;2023-02-01T02:40:46;7.20;99.90
20712;DHT22;10517;50.742;4.224;2023-02-01T02:43:20;7.20;99.90
20712;DHT22;10517;50.742;4.224;2023-02-01T02:46:22;7.20;99.90
20712;DHT22;10517;50.742;4.224;2023-02-01T02:49:12;7.20;99.90
20712;DHT22;10517;50.742;4.224;2023-02-01T02:51:49;7.00;99.90
20712;DHT22;10517;50.742;4.224;2023-02-01T02:54:37;7.00;99.90
20712;DHT22;10517;50.742;4.224;2023-02-01T03:00:17;7.10;99.90
20712;DHT22;10517;50.742;4.224;2023-02-01T03:03:02;7.20;99.90
20712;DHT22;10517;50.742;4.224;2023-02-01T03:05:48;7.20;99.90
20712;DHT22;10517;50.742;4.224;2023-02-01T03:08:28;7.10;99.90
20712;DHT22;10517;50.742;4.224;2023-02-01T03:11:09;7.00;99.90
20712;DHT22;10517;50.742;4.224;2023-02-01T03:14:11;7.00;99.90
20712;DHT22;10517;50.742;4.224;2023-02-01T03:16:51;6.80;99.90
20712;DHT22;10517;50.742;4.224;2023-02-01T03:19:35;6.80;99.90
20712;DHT22;10517;50.742;4.224;2023-02-01T03:22:03;6.70;99.90
20712;DHT22;10517;50.742;4.224;2023-02-01T03:24:33;6.60;99.90
20712;DHT22;10517;50.742;4.224;2023-02-01T03:29:47;6.40;99.90
20712;DHT22;10517;50.742;4.224;2023-02-01T03:32:14;6.40;99.90
20712;DHT22;10517;50.742;4.224;2023-02-01T03:34:40;6.40;99.90
20712;DHT22;10517;50.742;4.224;2023-02-01T03:37:11;6.30;99.90
20712;DHT22;10517;50.742;4.224;2023-02-01T03:42:26;6.50;99.90
20712;DHT22;10517;50.742;4.224;2023-02-01T03:47:40;6.50;99.90
20712;DHT22;10517;50.742;4.224;2023-02-01T03:50:14;6.40;99.90
20712;DHT22;10517;50.742;4.224;2023-02-01T03:52:44;6.20;99.90
20712;DHT22;10517;50.742;4.224;2023-02-01T03:55:13;6.30;99.90
20712;DHT22;10517;50.742;4.224;2023-02-01T03:57:44;6.20;99.90
20712;DHT22;10517;50.742;4.224;2023-02-01T04:00:26;6.20;99.90
20712;DHT22;10517;50.742;4.224;2023-02-01T04:02:53;6.10;99.90
20712;DHT22;10517;50.742;4.224;2023-02-01T04:05:19;6.10;99.90
20712;DHT22;10517;50.742;4.224;2023-02-01T04:07:45;6.00;99.90
20712;DHT22;10517;50.742;4.224;2023-02-01T04:10:11;6.00;99.90
20712;DHT22;10517;50.742;4.224;2023-02-01T04:12:37;6.00;99.90
20712;DHT22;10517;50.742;4.224;2023-02-01T04:15:03;6.00;99.90
20712;DHT22;10517;50.742;4.224;2023-02-01T04:17:29;5.90;99.90
20712;DHT22;10517;50.742;4.224;2023-02-01T04:19:55;5.90;99.90
20712;DHT22;10517;50.742;4.224;2023-02-01T04:22:21;5.80;99.90
20712;DHT22;10517;50.742;4.224;2023-02-01T04:24:46;5.70;99.90
20712;DHT22;10517;50.742;4.224;2023-02-01T04:27:12;5.60;99.90
20712;DHT22;10517;50.742;4.224;2023-02-01T04:29:38;5.80;99.90
20712;DHT22;10517;50.742;4.224;2023-02-01T04:32:04;5.70;99.90
20712;DHT22;10517;50.742;4.224;2023-02-01T04:34:30;5.70;99.90
20712;DHT22;10517;50.742;4.224;2023-02-01T04:36:56;5.70;99.90
20712;DHT22;10517;50.742;4.224;2023-02-01T04:39:21;5.70;99.90
20712;DHT22;10517;50.742;4.224;2023-02-01T04:41:47;5.60;99.90
20712;DHT22;10517;50.742;4.224;2023-02-01T04:44:14;5.50;99.90
20712;DHT22;10517;50.742;4.224;2023-02-01T04:46:41;5.50;99.90
20712;DHT22;10517;50.742;4.224;2023-02-01T04:49:08;5.50;99.90
20712;DHT22;10517;50.742;4.224;2023-02-01T04:51:34;5.50;99.90
20712;DHT22;10517;50.742;4.224;2023-02-01T04:54:00;5.50;99.90
20712;DHT22;10517;50.742;4.224;2023-02-01T04:56:25;5.50;99.90
20712;DHT22;10517;50.742;4.224;2023-02-01T04:58:51;5.50;99.90
20712;DHT22;10517;50.742;4.224;2023-02-01T05:01:16;5.50;99.90
20712;DHT22;10517;50.742;4.224;2023-02-01T05:03:42;5.50;99.90
20712;DHT22;10517;50.742;4.224;2023-02-01T05:06:08;5.40;99.90
20712;DHT22;10517;50.742;4.224;2023-02-01T05:08:33;5.50;99.90
20712;DHT22;10517;50.742;4.224;2023-02-01T05:10:59;5.50;99.90
20712;DHT22;10517;50.742;4.224;2023-02-01T05:13:28;5.60;99.90
20712;DHT22;10517;50.742;4.224;2023-02-01T05:16:12;5.50;99.90
20712;DHT22;10517;50.742;4.224;2023-02-01T05:18:37;5.50;99.90
20712;DHT22;10517;50.742;4.224;2023-02-01T05:21:03;5.40;99.90
20712;DHT22;10517;50.742;4.224;2023-02-01T05:23:28;5.30;99.90
20712;DHT22;10517;50.742;4.224;2023-02-01T05:25:58;5.30;99.90
20712;DHT22;10517;50.742;4.224;2023-02-01T05:28:25;5.20;99.90
20712;DHT22;10517;50.742;4.224;2023-02-01T05:30:50;5.30;99.90
20712;DHT22;10517;50.742;4.224;2023-02-01T05:33:16;5.30;99.90
20712;DHT22;10517;50.742;4.224;2023-02-01T05:35:41;5.20;99.90
20712;DHT22;10517;50.742;4.224;2023-02-01T05:38:07;5.20;99.90
20712;DHT22;10517;50.742;4.224;2023-02-01T05:40:33;5.30;99.90
20712;DHT22;10517;50.742;4.224;2023-02-01T05:42:58;5.30;99.90
20712;DHT22;10517;50.742;4.224;2023-02-01T05:45:24;5.20;99.90
20712;DHT22;10517;50.742;4.224;2023-02-01T05:47:49;5.10;99.90
20712;DHT22;10517;50.742;4.224;2023-02-01T05:50:16;5.20;99.90
20712;DHT22;10517;50.742;4.224;2023-02-01T05:52:42;5.30;99.90
20712;DHT22;10517;50.742;4.224;2023-02-01T05:55:07;5.30;99.90
20712;DHT22;10517;50.742;4.224;2023-02-01T05:57:33;5.20;99.90
20712;DHT22;10517;50.742;4.224;2023-02-01T05:59:59;5.10;99.90
20712;DHT22;10517;50.742;4.224;2023-02-01T06:02:24;5.10;99.90
20712;DHT22;10517;50.742;4.224;2023-02-01T06:04:50;5.00;99.90
20712;DHT22;10517;50.742;4.224;2023-02-01T06:07:16;4.90;99.90
20712;DHT22;10517;50.742;4.224;2023-02-01T06:09:42;4.90;99.90
20712;DHT22;10517;50.742;4.224;2023-02-01T06:12:07;4.90;99.90
20712;DHT22;10517;50.742;4.224;2023-02-01T06:14:33;4.80;99.90
20712;DHT22;10517;50.742;4.224;2023-02-01T06:16:59;4.80;99.90
20712;DHT22;10517;50.742;4.224;2023-02-01T06:19:24;4.90;99.90
20712;DHT22;10517;50.742;4.224;2023-02-01T06:21:50;5.00;99.90
20712;DHT22;10517;50.742;4.224;2023-02-01T06:24:15;5.00;99.90
20712;DHT22;10517;50.742;4.224;2023-02-01T06:26:41;5.00;99.90
20712;DHT22;10517;50.742;4.224;2023-02-01T06:29:09;5.00;99.90
20712;DHT22;10517;50.742;4.224;2023-02-01T06:31:35;4.90;99.90
20712;DHT22;10517;50.742;4.224;2023-02-01T06:34:00;4.80;99.90
20712;DHT22;10517;50.742;4.224;2023-02-01T06:36:26;4.70;99.90
20712;DHT22;10517;50.742;4.224;2023-02-01T06:38:51;4.70;99.90
20712;DHT22;10517;50.742;4.224;2023-02-01T06:41:17;4.70;99.90
20712;DHT22;10517;50.742;4.224;2023-02-01T06:43:43;4.80;99.90
20712;DHT22;10517;50.742;4.224;2023-02-01T06:46:14;4.80;99.90
20712;DHT22;10517;50.742;4.224;2023-02-01T06:48:40;4.80;99.90
20712;DHT22;10517;50.742;4.224;2023-02-01T06:51:10;4.70;99.90
20712;DHT22;10517;50.742;4.224;2023-02-01T06:53:40;4.70;99.90
20712;DHT22;10517;50.742;4.224;2023-02-01T06:56:08;4.80;99.90
20712;DHT22;10517;50.742;4.224;2023-02-01T06:58:34;4.80;99.90
20712;DHT22;10517;50.742;4.224;2023-02-01T07:01:05;4.80;99.90
20712;DHT22;10517;50.742;4.224;2023-02-01T07:03:30;4.80;99.90
20712;DHT22;10517;50.742;4.224;2023-02-01T07:05:57;4.80;99.90
20712;DHT22;10517;50.742;4.224;2023-02-01T07:08:29;4.70;99.90
20712;DHT22;10517;50.742;4.224;2023-02-01T07:10:55;4.70;99.90
20712;DHT22;10517;50.742;4.224;2023-02-01T07:13:20;4.70;99.90
20712;DHT22;10517;50.742;4.224;2023-02-01T07:15:46;4.60;99.90
20712;DHT22;10517;50.742;4.224;2023-02-01T07:18:13;4.60;99.90
20712;DHT22;10517;50.742;4.224;2023-02-01T07:20:39;4.60;99.90
20712;DHT22;10517;50.742;4.224;2023-02-01T07:23:05;4.60;99.90
20712;DHT22;10517;50.742;4.224;2023-02-01T07:25:31;4.60;99.90
20712;DHT22;10517;50.742;4.224;2023-02-01T07:27:57;4.60;99.90
20712;DHT22;10517;50.742;4.224;2023-02-01T07:30:23;4.60;99.90
20712;DHT22;10517;50.742;4.224;2023-02-01T07:32:49;4.70;99.90
20712;DHT22;10517;50.742;4.224;2023-02-01T07:35:14;4.80;99.90
20712;DHT22;10517;50.742;4.224;2023-02-01T07:37:40;4.80;99.90
20712;DHT22;10517;50.742;4.224;2023-02-01T07:40:06;4.70;99.90
20712;DHT22;10517;50.742;4.224;2023-02-01T07:42:32;4.70;99.90
20712;DHT22;10517;50.742;4.224;2023-02-01T07:44:57;4.80;99.90
20712;DHT22;10517;50.742;4.224;2023-02-01T07:47:23;4.80;99.90
20712;DHT22;10517;50.742;4.224;2023-02-01T07:49:49;4.70;99.90
20712;DHT22;10517;50.742;4.224;2023-02-01T07:52:14;4.70;99.90
20712;DHT22;10517;50.742;4.224;2023-02-01T07:54:42;4.80;99.90
20712;DHT22;10517;50.742;4.224;2023-02-01T07:57:09;4.70;99.90
20712;DHT22;10517;50.742;4.224;2023-02-01T07:59:36;4.80;99.90
20712;DHT22;10517;50.742;4.224;2023-02-01T08:02:22;4.90;99.90
20712;DHT22;10517;50.742;4.224;2023-02-01T08:04:47;5.00;99.90
20712;DHT22;10517;50.742;4.224;2023-02-01T08:07:13;5.00;99.90
20712;DHT22;10517;50.742;4.224;2023-02-01T08:09:39;5.10;99.90
20712;DHT22;10517;50.742;4.224;2023-02-01T08:12:04;5.20;99.90
20712;DHT22;10517;50.742;4.224;2023-02-01T08:14:30;5.20;99.90
20712;DHT22;10517;50.742;4.224;2023-02-01T08:16:55;5.30;99.90
20712;DHT22;10517;50.742;4.224;2023-02-01T08:19:21;5.40;99.90
20712;DHT22;10517;50.742;4.224;2023-02-01T08:21:47;5.50;99.90
20712;DHT22;10517;50.742;4.224;2023-02-01T08:24:14;5.60;99.90
20712;DHT22;10517;50.742;4.224;2023-02-01T08:26:39;5.70;99.90
20712;DHT22;10517;50.742;4.224;2023-02-01T08:29:07;5.70;99.90
20712;DHT22;10517;50.742;4.224;2023-02-01T08:31:34;5.70;99.90
20712;DHT22;10517;50.742;4.224;2023-02-01T08:34:02;5.90;99.90
20712;DHT22;10517;50.742;4.224;2023-02-01T08:36:30;5.90;99.90
20712;DHT22;10517;50.742;4.224;2023-02-01T08:38:56;5.90;99.90
20712;DHT22;10517;50.742;4.224;2023-02-01T08:41:25;5.90;99.90
20712;DHT22;10517;50.742;4.224;2023-02-01T08:43:51;6.00;99.90
20712;DHT22;10517;50.742;4.224;2023-02-01T08:46:19;5.90;99.90
20712;DHT22;10517;50.742;4.224;2023-02-01T08:48:46;6.10;99.90
20712;DHT22;10517;50.742;4.224;2023-02-01T08:51:14;6.00;99.90
20712;DHT22;10517;50.742;4.224;2023-02-01T08:53:40;6.00;99.90
20712;DHT22;10517;50.742;4.224;2023-02-01T08:56:07;6.10;99.90
20712;DHT22;10517;50.742;4.224;2023-02-01T08:58:33;6.20;99.90
20712;DHT22;10517;50.742;4.224;2023-02-01T09:01:25;6.40;99.90
20712;DHT22;10517;50.742;4.224;2023-02-01T09:03:50;6.50;99.90
20712;DHT22;10517;50.742;4.224;2023-02-01T09:06:16;6.40;99.90
20712;DHT22;10517;50.742;4.224;2023-02-01T09:08:42;6.50;99.90
20712;DHT22;10517;50.742;4.224;2023-02-01T09:11:11;6.50;99.90
20712;DHT22;10517;50.742;4.224;2023-02-01T09:13:37;6.50;99.90
20712;DHT22;10517;50.742;4.224;2023-02-01T09:16:04;6.40;99.90
20712;DHT22;10517;50.742;4.224;2023-02-01T09:18:29;6.50;99.90
20712;DHT22;10517;50.742;4.224;2023-02-01T09:20:55;6.40;99.90
20712;DHT22;10517;50.742;4.224;2023-02-01T09:23:21;6.40;99.90
20712;DHT22;10517;50.742;4.224;2023-02-01T09:25:47;6.40;99.90
20712;DHT22;10517;50.742;4.224;2023-02-01T09:28:17;6.40;99.90
20712;DHT22;10517;50.742;4.224;2023-02-01T09:30:42;6.50;99.90
20712;DHT22;10517;50.742;4.224;2023-02-01T09:33:08;6.60;99.90
20712;DHT22;10517;50.742;4.224;2023-02-01T09:35:33;6.70;99.90
20712;DHT22;10517;50.742;4.224;2023-02-01T09:37:59;6.80;99.90
20712;DHT22;10517;50.742;4.224;2023-02-01T09:40:25;6.90;99.90
20712;DHT22;10517;50.742;4.224;2023-02-01T09:43:32;6.80;99.90
20712;DHT22;10517;50.742;4.224;2023-02-01T09:48:37;7.10;99.90
20712;DHT22;10517;50.742;4.224;2023-02-01T09:51:06;7.20;99.90
20712;DHT22;10517;50.742;4.224;2023-02-01T09:53:40;7.20;99.90
20712;DHT22;10517;50.742;4.224;2023-02-01T09:56:13;7.20;99.90
20712;DHT22;10517;50.742;4.224;2023-02-01T09:58:55;7.30;99.90
20712;DHT22;10517;50.742;4.224;2023-02-01T10:01:26;7.30;99.90
20712;DHT22;10517;50.742;4.224;2023-02-01T10:04:03;7.40;99.90
20712;DHT22;10517;50.742;4.224;2023-02-01T10:22:05;8.00;99.90
20712;DHT22;10517;50.742;4.224;2023-02-01T10:27:23;8.10;99.90
20712;DHT22;10517;50.742;4.224;2023-02-01T10:29:53;8.20;99.90
20712;DHT22;10517;50.742;4.224;2023-02-01T10:32:27;8.30;99.90
20712;DHT22;10517;50.742;4.224;2023-02-01T10:35:17;8.40;99.90
20712;DHT22;10517;50.742;4.224;2023-02-01T10:37:44;8.30;99.90
20712;DHT22;10517;50.742;4.224;2023-02-01T10:40:20;8.50;99.90
20712;DHT22;10517;50.742;4.224;2023-02-01T10:42:48;8.50;99.90
20712;DHT22;10517;50.742;4.224;2023-02-01T10:45:19;8.50;99.90
20712;DHT22;10517;50.742;4.224;2023-02-01T10:47:48;8.60;99.90
20712;DHT22;10517;50.742;4.224;2023-02-01T10:53:10;8.70;99.90
20712;DHT22;10517;50.742;4.224;2023-02-01T10:55:41;8.70;99.90
20712;DHT22;10517;50.742;4.224;2023-02-01T10:58:19;8.80;99.90
20712;DHT22;10517;50.742;4.224;2023-02-01T11:03:21;8.80;99.90
20712;DHT22;10517;50.742;4.224;2023-02-01T11:05:55;9.20;99.90
20712;DHT22;10517;50.742;4.224;2023-02-01T11:08:21;9.20;99.90
20712;DHT22;10517;50.742;4.224;2023-02-01T11:10:46;9.50;99.90
20712;DHT22;10517;50.742;4.224;2023-02-01T11:13:17;9.60;99.90
20712;DHT22;10517;50.742;4.224;2023-02-01T11:15:44;9.40;99.90
20712;DHT22;10517;50.742;4.224;2023-02-01T11:18:19;9.50;99.90
20712;DHT22;10517;50.742;4.224;2023-02-01T11:20:46;9.30;99.90
20712;DHT22;10517;50.742;4.224;2023-02-01T11:23:20;9.10;99.90
20712;DHT22;10517;50.742;4.224;2023-02-01T11:25:53;9.00;99.90
20712;DHT22;10517;50.742;4.224;2023-02-01T11:28:22;9.10;99.90
20712;DHT22;10517;50.742;4.224;2023-02-01T11:30:49;9.20;99.90
20712;DHT22;10517;50.742;4.224;2023-02-01T11:33:19;9.40;99.90
20712;DHT22;10517;50.742;4.224;2023-02-01T11:35:47;9.60;99.90
20712;DHT22;10517;50.742;4.224;2023-02-01T11:38:32;9.70;99.90
20712;DHT22;10517;50.742;4.224;2023-02-01T11:41:25;10.00;99.90
20712;DHT22;10517;50.742;4.224;2023-02-01T11:43:53;10.10;99.90
20712;DHT22;10517;50.742;4.224;2023-02-01T11:46:23;10.00;99.90
20712;DHT22;10517;50.742;4.224;2023-02-01T11:48:52;10.00;99.90
20712;DHT22;10517;50.742;4.224;2023-02-01T11:51:44;10.00;99.90
20712;DHT22;10517;50.742;4.224;2023-02-01T11:54:27;9.90;99.90
20712;DHT22;10517;50.742;4.224;2023-02-01T11:57:19;9.80;99.90
20712;DHT22;10517;50.742;4.224;2023-02-01T12:05:59;10.00;99.90
20712;DHT22;10517;50.742;4.224;2023-02-01T12:09:17;9.90;99.90
20712;DHT22;10517;50.742;4.224;2023-02-01T12:11:33;9.70;99.90
20712;DHT22;10517;50.742;4.224;2023-02-01T12:22:43;9.90;99.90
20712;DHT22;10517;50.742;4.224;2023-02-01T12:36:51;10.20;99.90
20712;DHT22;10517;50.742;4.224;2023-02-01T12:39:46;10.20;99.90
20712;DHT22;10517;50.742;4.224;2023-02-01T12:42:19;10.20;99.90
20712;DHT22;10517;50.742;4.224;2023-02-01T12:47:49;10.40;99.90
20712;DHT22;10517;50.742;4.224;2023-02-01T12:50:20;10.50;99.90
20712;DHT22;10517;50.742;4.224;2023-02-01T12:52:49;10.60;99.90
20712;DHT22;10517;50.742;4.224;2023-02-01T12:55:42;10.70;99.90
20712;DHT22;10517;50.742;4.224;2023-02-01T13:00:50;10.50;99.90
20712;DHT22;10517;50.742;4.224;2023-02-01T13:03:44;10.50;99.90
20712;DHT22;10517;50.742;4.224;2023-02-01T13:06:15;10.60;99.90
20712;DHT22;10517;50.742;4.224;2023-02-01T13:09:02;10.50;99.90
20712;DHT22;10517;50.742;4.224;2023-02-01T13:11:40;10.60;99.90
20712;DHT22;10517;50.742;4.224;2023-02-01T13:14:40;10.40;99.90
20712;DHT22;10517;50.742;4.224;2023-02-01T13:17:16;10.30;99.90
20712;DHT22;10517;50.742;4.224;2023-02-01T13:25:03;10.50;99.90
20712;DHT22;10517;50.742;4.224;2023-02-01T13:27:30;10.80;99.90
20712;DHT22;10517;50.742;4.224;2023-02-01T13:30:00;10.50;99.90
20712;DHT22;10517;50.742;4.224;2023-02-01T13:32:53;10.60;99.90
20712;DHT22;10517;50.742;4.224;2023-02-01T13:38:38;11.20;99.90
20712;DHT22;10517;50.742;4.224;2023-02-01T13:41:29;11.70;99.90
20712;DHT22;10517;50.742;4.224;2023-02-01T13:44:11;11.90;99.90
20712;DHT22;10517;50.742;4.224;2023-02-01T13:46:40;11.70;99.90
20712;DHT22;10517;50.742;4.224;2023-02-01T13:49:22;11.80;99.90
20712;DHT22;10517;50.742;4.224;2023-02-01T13:51:52;11.90;99.90
20712;DHT22;10517;50.742;4.224;2023-02-01T13:56:56;11.70;99.90
20712;DHT22;10517;50.742;4.224;2023-02-01T14:05:01;10.80;99.90
20712;DHT22;10517;50.742;4.224;2023-02-01T14:07:26;11.00;99.90
20712;DHT22;10517;50.742;4.224;2023-02-01T14:09:52;11.10;99.90
20712;DHT22;10517;50.742;4.224;2023-02-01T14:12:47;11.40;99.90
20712;DHT22;10517;50.742;4.224;2023-02-01T14:15:25;11.60;99.90
20712;DHT22;10517;50.742;4.224;2023-02-01T14:17:51;11.40;99.90
20712;DHT22;10517;50.742;4.224;2023-02-01T14:20:46;11.40;99.90
20712;DHT22;10517;50.742;4.224;2023-02-01T14:23:20;11.50;99.90
20712;DHT22;10517;50.742;4.224;2023-02-01T14:25:48;11.50;
20712;DHT22;10517;50.742;4.224;2023-02-01T14:28:26;11.50;99.90
20712;DHT22;10517;50.742;4.224;2023-02-01T14:30:54;11.50;99.90
20712;DHT22;10517;50.742;4.224;2023-02-01T14:33:26;11.40;99.90
20712;DHT22;10517;50.742;4.224;2023-02-01T14:36:06;11.20;99.90
20712;DHT22;10517;50.742;4.224;2023-02-01T14:38:35;11.10;99.90
20712;DHT22;10517;50.742;4.224;2023-02-01T14:41:24;11.00;99.90
20712;DHT22;10517;50.742;4.224;2023-02-01T14:47:09;10.80;99.90
20712;DHT22;10517;50.742;4.224;2023-02-01T14:49:57;10.70;99.90
20712;DHT22;10517;50.742;4.224;2023-02-01T14:52:34;10.70;99.90
20712;DHT22;10517;50.742;4.224;2023-02-01T14:55:03;10.60;99.90
20712;DHT22;10517;50.742;4.224;2023-02-01T14:57:31;10.60;99.90
20712;DHT22;10517;50.742;4.224;2023-02-01T15:00:26;10.60;99.90
20712;DHT22;10517;50.742;4.224;2023-02-01T15:02:54;10.40;99.90
20712;DHT22;10517;50.742;4.224;2023-02-01T15:05:27;10.20;99.90
20712;DHT22;10517;50.742;4.224;2023-02-01T15:07:58;10.10;99.90
20712;DHT22;10517;50.742;4.224;2023-02-01T15:10:26;10.00;99.90
20712;DHT22;10517;50.742;4.224;2023-02-01T15:12:51;10.00;99.90
20712;DHT22;10517;50.742;4.224;2023-02-01T15:15:20;9.90;99.90
20712;DHT22;10517;50.742;4.224;2023-02-01T15:17:57;9.90;99.90
20712;DHT22;10517;50.742;4.224;2023-02-01T15:20:27;9.90;99.90
20712;DHT22;10517;50.742;4.224;2023-02-01T15:23:02;10.00;99.90
20712;DHT22;10517;50.742;4.224;2023-02-01T15:25:30;9.80;99.90
20712;DHT22;10517;50.742;4.224;2023-02-01T15:27:57;9.80;99.90
20712;DHT22;10517;50.742;4.224;2023-02-01T15:30:28;9.80;99.90
20712;DHT22;10517;50.742;4.224;2023-02-01T15:35:38;9.80;99.90
20712;DHT22;10517;50.742;4.224;2023-02-01T15:46:36;9.80;99.90
20712;DHT22;10517;50.742;4.224;2023-02-01T15:49:02;9.80;99.90
20712;DHT22;10517;50.742;4.224;2023-02-01T15:51:30;9.70;99.90
20712;DHT22;10517;50.742;4.224;2023-02-01T15:54:01;9.70;99.90
20712;DHT22;10517;50.742;4.224;2023-02-01T15:56:34;9.70;99.90
20712;DHT22;10517;50.742;4.224;2023-02-01T15:59:02;9.70;99.90
20712;DHT22;10517;50.742;4.224;2023-02-01T16:01:29;9.70;99.90
20712;DHT22;10517;50.742;4.224;2023-02-01T16:04:22;9.70;99.90
20712;DHT22;10517;50.742;4.224;2023-02-01T16:06:54;9.80;99.90
20712;DHT22;10517;50.742;4.224;2023-02-01T16:09:24;9.60;99.90
20712;DHT22;10517;50.742;4.224;2023-02-01T16:12:00;9.60;99.90
20712;DHT22;10517;50.742;4.224;2023-02-01T16:14:26;9.50;99.90
20712;DHT22;10517;50.742;4.224;2023-02-01T16:16:54;9.50;99.90
20712;DHT22;10517;50.742;4.224;2023-02-01T16:19:20;9.50;99.90
20712;DHT22;10517;50.742;4.224;2023-02-01T16:21:46;9.50;99.90
20712;DHT22;10517;50.742;4.224;2023-02-01T16:24:12;9.40;99.90
20712;DHT22;10517;50.742;4.224;2023-02-01T16:26:38;9.40;99.90
20712;DHT22;10517;50.742;4.224;2023-02-01T16:29:05;9.40;99.90
20712;DHT22;10517;50.742;4.224;2023-02-01T16:31:36;9.40;99.90
20712;DHT22;10517;50.742;4.224;2023-02-01T16:34:03;9.30;99.90
20712;DHT22;10517;50.742;4.224;2023-02-01T16:36:30;9.30;99.90
20712;DHT22;10517;50.742;4.224;2023-02-01T16:38:57;9.30;99.90
20712;DHT22;10517;50.742;4.224;2023-02-01T16:41:24;9.40;99.90
20712;DHT22;10517;50.742;4.224;2023-02-01T16:43:51;9.50;99.90
20712;DHT22;10517;50.742;4.224;2023-02-01T16:46:20;9.50;99.90
20712;DHT22;10517;50.742;4.224;2023-02-01T16:48:58;9.60;99.90
20712;DHT22;10517;50.742;4.224;2023-02-01T16:51:26;9.60;99.90
20712;DHT22;10517;50.742;4.224;2023-02-01T16:53:53;9.60;99.90
20712;DHT22;10517;50.742;4.224;2023-02-01T16:56:28;9.40;99.90
20712;DHT22;10517;50.742;4.224;2023-02-01T16:58:54;9.40;99.90
20712;DHT22;10517;50.742;4.224;2023-02-01T17:01:20;9.40;99.90
20712;DHT22;10517;50.742;4.224;2023-02-01T17:03:46;9.40;99.90
20712;DHT22;10517;50.742;4.224;2023-02-01T17:06:18;9.40;99.90
20712;DHT22;10517;50.742;4.224;2023-02-01T17:08:47;9.40;99.90
20712;DHT22;10517;50.742;4.224;2023-02-01T17:11:14;9.40;99.90
20712;DHT22;10517;50.742;4.224;2023-02-01T17:13:41;9.40;99.90
20712;DHT22;10517;50.742;4.224;2023-02-01T17:18:47;9.50;99.90
20712;DHT22;10517;50.742;4.224;2023-02-01T17:21:15;9.30;99.90
20712;DHT22;10517;50.742;4.224;2023-02-01T17:23:40;9.30;99.90
20712;DHT22;10517;50.742;4.224;2023-02-01T17:26:09;9.20;99.90
20712;DHT22;10517;50.742;4.224;2023-02-01T17:28:34;9.30;99.90
20712;DHT22;10517;50.742;4.224;2023-02-01T17:31:01;9.30;99.90
20712;DHT22;10517;50.742;4.224;2023-02-01T17:33:30;9.20;99.90
20712;DHT22;10517;50.742;4.224;2023-02-01T17:35:56;9.10;99.90
20712;DHT22;10517;50.742;4.224;2023-02-01T17:38:23;9.10;99.90
20712;DHT22;10517;50.742;4.224;2023-02-01T17:40:49;9.10;99.90
20712;DHT22;10517;50.742;4.224;2023-02-01T17:43:17;9.10;99.90
20712;DHT22;10517;50.742;4.224;2023-02-01T17:45:48;9.10;99.90
20712;DHT22;10517;50.742;4.224;2023-02-01T17:48:20;9.10;99.90
20712;DHT22;10517;50.742;4.224;2023-02-01T17:50:48;9.10;99.90
20712;DHT22;10517;50.742;4.224;2023-02-01T17:53:17;9.20;99.90
20712;DHT22;10517;50.742;4.224;2023-02-01T17:55:45;9.10;99.90